sensor_id;sensor_type;location;lat;lon;timestamp;P1;durP1;ratioP1;P2;durP2;ratioP2
10823;SDS011;39116;59.332;18.034;2022-07-26T00:01:27;10.25;;;7.25;;
10823;SDS011;39116;59.332;18.034;2022-07-26T00:03:53;7.85;;;7.00;;
10823;SDS011;39116;59.332;18.034;2022-07-26T00:06:21;8.40;;;6.75;;
10823;SDS011;39116;59.332;18.034;2022-07-26T00:08:49;8.00;;;7.20;;
10823;SDS011;39116;59.332;18.034;2022-07-26T00:11:16;11.02;;;7.25;;
10823;SDS011;39116;59.332;18.034;2022-07-26T00:13:42;11.20;;;7.68;;
10823;SDS011;39116;59.332;18.034;2022-07-26T00:16:09;8.60;;;7.03;;
10823;SDS011;39116;59.332;18.034;2022-07-26T00:18:35;10.32;;;7.28;;
10823;SDS011;39116;59.332;18.034;2022-07-26T00:21:02;11.43;;;7.18;;
10823;SDS011;39116;59.332;18.034;2022-07-26T00:23:30;10.02;;;7.03;;
10823;SDS011;39116;59.332;18.034;2022-07-26T00:25:56;10.98;;;8.15;;
10823;SDS011;39116;59.332;18.034;2022-07-26T00:28:23;8.85;;;6.93;;
10823;SDS011;39116;59.332;18.034;2022-07-26T00:30:49;11.30;;;7.28;;
10823;SDS011;39116;59.332;18.034;2022-07-26T00:33:15;10.48;;;7.68;;
10823;SDS011;39116;59.332;18.034;2022-07-26T00:35:42;11.88;;;7.28;;
10823;SDS011;39116;59.332;18.034;2022-07-26T00:38:08;8.85;;;7.18;;
10823;SDS011;39116;59.332;18.034;2022-07-26T00:40:36;7.63;;;6.85;;
10823;SDS011;39116;59.332;18.034;2022-07-26T00:43:02;10.73;;;6.97;;
10823;SDS011;39116;59.332;18.034;2022-07-26T00:45:29;7.93;;;7.13;;
10823;SDS011;39116;59.332;18.034;2022-07-26T00:47:55;9.05;;;7.25;;
10823;SDS011;39116;59.332;18.034;2022-07-26T00:50:22;8.05;;;7.20;;
10823;SDS011;39116;59.332;18.034;2022-07-26T00:52:48;8.20;;;6.72;;
10823;SDS011;39116;59.332;18.034;2022-07-26T00:55:15;12.48;;;6.90;;
10823;SDS011;39116;59.332;18.034;2022-07-26T00:57:44;7.75;;;7.05;;
10823;SDS011;39116;59.332;18.034;2022-07-26T01:00:12;7.93;;;6.80;;
10823;SDS011;39116;59.332;18.034;2022-07-26T01:02:39;8.10;;;7.30;;
10823;SDS011;39116;59.332;18.034;2022-07-26T01:05:06;8.35;;;7.28;;
10823;SDS011;39116;59.332;18.034;2022-07-26T01:07:34;8.15;;;7.13;;
10823;SDS011;39116;59.332;18.034;2022-07-26T01:10:00;8.35;;;7.47;;
10823;SDS011;39116;59.332;18.034;2022-07-26T01:12:27;7.63;;;6.93;;
10823;SDS011;39116;59.332;18.034;2022-07-26T01:14:55;9.07;;;7.40;;
10823;SDS011;39116;59.332;18.034;2022-07-26T01:17:21;7.93;;;7.13;;
10823;SDS011;39116;59.332;18.034;2022-07-26T01:19:48;8.00;;;7.20;;
10823;SDS011;39116;59.332;18.034;2022-07-26T01:22:16;8.13;;;7.32;;
10823;SDS011;39116;59.332;18.034;2022-07-26T01:24:42;9.48;;;7.50;;
10823;SDS011;39116;59.332;18.034;2022-07-26T01:27:08;8.88;;;7.22;;
10823;SDS011;39116;59.332;18.034;2022-07-26T01:29:35;8.73;;;7.80;;
10823;SDS011;39116;59.332;18.034;2022-07-26T01:32:01;9.27;;;7.13;;
10823;SDS011;39116;59.332;18.034;2022-07-26T01:34:29;9.77;;;7.15;;
10823;SDS011;39116;59.332;18.034;2022-07-26T01:36:55;7.95;;;7.15;;
10823;SDS011;39116;59.332;18.034;2022-07-26T01:39:23;8.77;;;7.57;;
10823;SDS011;39116;59.332;18.034;2022-07-26T01:41:49;9.80;;;7.22;;
10823;SDS011;39116;59.332;18.034;2022-07-26T01:44:16;7.85;;;7.05;;
10823;SDS011;39116;59.332;18.034;2022-07-26T01:46:42;9.48;;;7.75;;
10823;SDS011;39116;59.332;18.034;2022-07-26T01:49:09;9.23;;;6.72;;
10823;SDS011;39116;59.332;18.034;2022-07-26T01:51:35;9.07;;;7.97;;
10823;SDS011;39116;59.332;18.034;2022-07-26T01:54:01;8.70;;;7.70;;
10823;SDS011;39116;59.332;18.034;2022-07-26T01:56:29;10.10;;;8.05;;
10823;SDS011;39116;59.332;18.034;2022-07-26T01:58:55;8.88;;;7.80;;
10823;SDS011;39116;59.332;18.034;2022-07-26T02:01:22;11.63;;;9.05;;
10823;SDS011;39116;59.332;18.034;2022-07-26T02:03:48;10.52;;;8.75;;
10823;SDS011;39116;59.332;18.034;2022-07-26T02:06:15;12.18;;;9.25;;
10823;SDS011;39116;59.332;18.034;2022-07-26T02:08:41;10.27;;;9.10;;
10823;SDS011;39116;59.332;18.034;2022-07-26T02:11:08;14.45;;;9.57;;
10823;SDS011;39116;59.332;18.034;2022-07-26T02:13:36;10.80;;;9.43;;
10823;SDS011;39116;59.332;18.034;2022-07-26T02:16:03;11.95;;;8.82;;
10823;SDS011;39116;59.332;18.034;2022-07-26T02:18:30;10.32;;;9.13;;
10823;SDS011;39116;59.332;18.034;2022-07-26T02:20:57;10.32;;;9.30;;
10823;SDS011;39116;59.332;18.034;2022-07-26T02:23:24;12.00;;;9.43;;
10823;SDS011;39116;59.332;18.034;2022-07-26T02:25:50;9.82;;;8.85;;
10823;SDS011;39116;59.332;18.034;2022-07-26T02:28:17;10.65;;;9.55;;
10823;SDS011;39116;59.332;18.034;2022-07-26T02:30:45;11.60;;;9.40;;
10823;SDS011;39116;59.332;18.034;2022-07-26T02:33:11;9.95;;;8.85;;
10823;SDS011;39116;59.332;18.034;2022-07-26T02:35:38;10.00;;;8.70;;
10823;SDS011;39116;59.332;18.034;2022-07-26T02:38:05;10.05;;;8.63;;
10823;SDS011;39116;59.332;18.034;2022-07-26T02:40:32;9.68;;;8.63;;
10823;SDS011;39116;59.332;18.034;2022-07-26T02:42:58;9.63;;;8.57;;
10823;SDS011;39116;59.332;18.034;2022-07-26T02:45:25;9.20;;;8.32;;
10823;SDS011;39116;59.332;18.034;2022-07-26T02:47:53;9.23;;;8.27;;
10823;SDS011;39116;59.332;18.034;2022-07-26T02:50:20;10.38;;;9.27;;
10823;SDS011;39116;59.332;18.034;2022-07-26T02:52:47;9.90;;;8.90;;
10823;SDS011;39116;59.332;18.034;2022-07-26T02:55:14;9.10;;;8.30;;
10823;SDS011;39116;59.332;18.034;2022-07-26T02:57:41;10.25;;;9.23;;
10823;SDS011;39116;59.332;18.034;2022-07-26T03:00:08;12.25;;;9.13;;
10823;SDS011;39116;59.332;18.034;2022-07-26T03:02:35;10.05;;;9.00;;
10823;SDS011;39116;59.332;18.034;2022-07-26T03:05:03;11.82;;;9.80;;
10823;SDS011;39116;59.332;18.034;2022-07-26T03:07:30;12.43;;;9.13;;
10823;SDS011;39116;59.332;18.034;2022-07-26T03:09:56;11.13;;;8.70;;
10823;SDS011;39116;59.332;18.034;2022-07-26T03:12:23;9.82;;;8.40;;
10823;SDS011;39116;59.332;18.034;2022-07-26T03:14:49;10.73;;;8.85;;
10823;SDS011;39116;59.332;18.034;2022-07-26T03:17:16;9.75;;;8.77;;
10823;SDS011;39116;59.332;18.034;2022-07-26T03:19:42;9.85;;;8.80;;
10823;SDS011;39116;59.332;18.034;2022-07-26T03:22:10;10.25;;;8.98;;
10823;SDS011;39116;59.332;18.034;2022-07-26T03:24:36;12.75;;;8.20;;
10823;SDS011;39116;59.332;18.034;2022-07-26T03:27:03;11.52;;;9.30;;
10823;SDS011;39116;59.332;18.034;2022-07-26T03:29:29;11.60;;;9.23;;
10823;SDS011;39116;59.332;18.034;2022-07-26T03:31:56;11.82;;;9.07;;
10823;SDS011;39116;59.332;18.034;2022-07-26T03:34:22;11.65;;;9.13;;
10823;SDS011;39116;59.332;18.034;2022-07-26T03:36:48;10.63;;;8.55;;
10823;SDS011;39116;59.332;18.034;2022-07-26T03:39:16;10.18;;;9.13;;
10823;SDS011;39116;59.332;18.034;2022-07-26T03:41:43;10.68;;;9.10;;
10823;SDS011;39116;59.332;18.034;2022-07-26T03:44:09;10.55;;;9.20;;
10823;SDS011;39116;59.332;18.034;2022-07-26T03:46:36;11.18;;;9.25;;
10823;SDS011;39116;59.332;18.034;2022-07-26T03:49:02;10.55;;;9.38;;
10823;SDS011;39116;59.332;18.034;2022-07-26T03:51:28;10.32;;;8.65;;
10823;SDS011;39116;59.332;18.034;2022-07-26T03:53:57;10.07;;;9.07;;
10823;SDS011;39116;59.332;18.034;2022-07-26T03:56:25;11.55;;;8.77;;
10823;SDS011;39116;59.332;18.034;2022-07-26T03:58:56;11.90;;;9.40;;
10823;SDS011;39116;59.332;18.034;2022-07-26T04:01:23;12.07;;;8.80;;
10823;SDS011;39116;59.332;18.034;2022-07-26T04:03:50;11.32;;;9.50;;
10823;SDS011;39116;59.332;18.034;2022-07-26T04:06:16;10.27;;;9.27;;
10823;SDS011;39116;59.332;18.034;2022-07-26T04:08:43;9.88;;;8.60;;
10823;SDS011;39116;59.332;18.034;2022-07-26T04:11:09;10.57;;;9.20;;
10823;SDS011;39116;59.332;18.034;2022-07-26T04:13:37;12.73;;;9.48;;
10823;SDS011;39116;59.332;18.034;2022-07-26T04:16:04;11.43;;;8.50;;
10823;SDS011;39116;59.332;18.034;2022-07-26T04:18:31;10.15;;;9.05;;
10823;SDS011;39116;59.332;18.034;2022-07-26T04:20:57;9.63;;;8.60;;
10823;SDS011;39116;59.332;18.034;2022-07-26T04:23:24;9.75;;;8.75;;
10823;SDS011;39116;59.332;18.034;2022-07-26T04:25:50;10.48;;;9.38;;
10823;SDS011;39116;59.332;18.034;2022-07-26T04:28:16;10.43;;;8.55;;
10823;SDS011;39116;59.332;18.034;2022-07-26T04:30:44;9.23;;;8.23;;
10823;SDS011;39116;59.332;18.034;2022-07-26T04:33:11;9.43;;;8.52;;
10823;SDS011;39116;59.332;18.034;2022-07-26T04:35:37;11.45;;;8.57;;
10823;SDS011;39116;59.332;18.034;2022-07-26T04:38:04;11.02;;;8.70;;
10823;SDS011;39116;59.332;18.034;2022-07-26T04:40:30;10.32;;;8.65;;
10823;SDS011;39116;59.332;18.034;2022-07-26T04:42:58;11.27;;;8.63;;
10823;SDS011;39116;59.332;18.034;2022-07-26T04:45:25;9.60;;;8.50;;
10823;SDS011;39116;59.332;18.034;2022-07-26T04:47:53;10.55;;;8.60;;
10823;SDS011;39116;59.332;18.034;2022-07-26T04:50:20;11.15;;;8.90;;
10823;SDS011;39116;59.332;18.034;2022-07-26T04:52:47;9.23;;;8.23;;
10823;SDS011;39116;59.332;18.034;2022-07-26T04:55:13;10.25;;;7.78;;
10823;SDS011;39116;59.332;18.034;2022-07-26T04:57:39;11.07;;;8.45;;
10823;SDS011;39116;59.332;18.034;2022-07-26T05:00:07;11.35;;;8.43;;
10823;SDS011;39116;59.332;18.034;2022-07-26T05:02:33;11.50;;;8.38;;
10823;SDS011;39116;59.332;18.034;2022-07-26T05:05:02;9.82;;;8.27;;
10823;SDS011;39116;59.332;18.034;2022-07-26T05:07:37;8.98;;;7.22;;
10823;SDS011;39116;59.332;18.034;2022-07-26T05:10:04;8.65;;;7.32;;
10823;SDS011;39116;59.332;18.034;2022-07-26T05:12:31;9.70;;;7.40;;
10823;SDS011;39116;59.332;18.034;2022-07-26T05:14:57;8.60;;;7.70;;
10823;SDS011;39116;59.332;18.034;2022-07-26T05:17:23;9.05;;;7.38;;
10823;SDS011;39116;59.332;18.034;2022-07-26T05:19:50;11.10;;;7.80;;
10823;SDS011;39116;59.332;18.034;2022-07-26T05:22:18;10.52;;;7.60;;
10823;SDS011;39116;59.332;18.034;2022-07-26T05:24:44;10.05;;;7.80;;
10823;SDS011;39116;59.332;18.034;2022-07-26T05:27:11;9.30;;;7.40;;
10823;SDS011;39116;59.332;18.034;2022-07-26T05:29:37;8.23;;;7.43;;
10823;SDS011;39116;59.332;18.034;2022-07-26T05:32:04;12.18;;;7.88;;
10823;SDS011;39116;59.332;18.034;2022-07-26T05:34:30;10.98;;;7.53;;
10823;SDS011;39116;59.332;18.034;2022-07-26T05:36:57;10.43;;;7.43;;
10823;SDS011;39116;59.332;18.034;2022-07-26T05:39:24;10.38;;;7.53;;
10823;SDS011;39116;59.332;18.034;2022-07-26T05:41:51;10.77;;;8.30;;
10823;SDS011;39116;59.332;18.034;2022-07-26T05:44:17;9.15;;;7.68;;
10823;SDS011;39116;59.332;18.034;2022-07-26T05:46:46;9.68;;;8.25;;
10823;SDS011;39116;59.332;18.034;2022-07-26T05:49:12;10.10;;;7.90;;
10823;SDS011;39116;59.332;18.034;2022-07-26T05:51:38;11.57;;;7.78;;
10823;SDS011;39116;59.332;18.034;2022-07-26T05:54:05;15.95;;;8.77;;
10823;SDS011;39116;59.332;18.034;2022-07-26T05:56:33;14.32;;;9.15;;
10823;SDS011;39116;59.332;18.034;2022-07-26T05:58:59;10.90;;;7.32;;
10823;SDS011;39116;59.332;18.034;2022-07-26T06:01:26;8.38;;;6.32;;
10823;SDS011;39116;59.332;18.034;2022-07-26T06:03:56;6.00;;;5.40;;
10823;SDS011;39116;59.332;18.034;2022-07-26T06:06:22;5.25;;;4.18;;
10823;SDS011;39116;59.332;18.034;2022-07-26T06:08:49;7.20;;;5.10;;
10823;SDS011;39116;59.332;18.034;2022-07-26T06:11:15;5.45;;;4.95;;
10823;SDS011;39116;59.332;18.034;2022-07-26T06:13:43;4.95;;;4.40;;
10823;SDS011;39116;59.332;18.034;2022-07-26T06:16:10;5.25;;;4.75;;
10823;SDS011;39116;59.332;18.034;2022-07-26T06:18:36;4.60;;;4.20;;
10823;SDS011;39116;59.332;18.034;2022-07-26T06:21:03;5.15;;;4.63;;
10823;SDS011;39116;59.332;18.034;2022-07-26T06:23:29;4.60;;;4.20;;
10823;SDS011;39116;59.332;18.034;2022-07-26T06:25:55;4.18;;;3.88;;
10823;SDS011;39116;59.332;18.034;2022-07-26T06:28:22;4.55;;;4.15;;
10823;SDS011;39116;59.332;18.034;2022-07-26T06:30:49;5.90;;;5.30;;
10823;SDS011;39116;59.332;18.034;2022-07-26T06:33:16;5.70;;;4.20;;
10823;SDS011;39116;59.332;18.034;2022-07-26T06:35:43;4.53;;;4.13;;
10823;SDS011;39116;59.332;18.034;2022-07-26T06:38:09;4.90;;;4.50;;
10823;SDS011;39116;59.332;18.034;2022-07-26T06:40:36;4.63;;;4.22;;
10823;SDS011;39116;59.332;18.034;2022-07-26T06:43:02;4.82;;;4.10;;
10823;SDS011;39116;59.332;18.034;2022-07-26T06:45:29;5.43;;;4.70;;
10823;SDS011;39116;59.332;18.034;2022-07-26T06:47:56;5.13;;;4.55;;
10823;SDS011;39116;59.332;18.034;2022-07-26T06:50:23;4.85;;;3.92;;
10823;SDS011;39116;59.332;18.034;2022-07-26T06:52:49;4.47;;;3.80;;
10823;SDS011;39116;59.332;18.034;2022-07-26T06:55:16;4.57;;;4.18;;
10823;SDS011;39116;59.332;18.034;2022-07-26T06:57:42;4.50;;;4.10;;
10823;SDS011;39116;59.332;18.034;2022-07-26T07:00:09;5.00;;;4.32;;
10823;SDS011;39116;59.332;18.034;2022-07-26T07:02:35;5.13;;;4.63;;
10823;SDS011;39116;59.332;18.034;2022-07-26T07:05:04;5.32;;;4.70;;
10823;SDS011;39116;59.332;18.034;2022-07-26T07:07:30;5.80;;;4.65;;
10823;SDS011;39116;59.332;18.034;2022-07-26T07:09:57;4.75;;;4.35;;
10823;SDS011;39116;59.332;18.034;2022-07-26T07:12:23;5.10;;;4.60;;
10823;SDS011;39116;59.332;18.034;2022-07-26T07:14:49;4.82;;;4.32;;
10823;SDS011;39116;59.332;18.034;2022-07-26T07:17:17;5.30;;;4.80;;
10823;SDS011;39116;59.332;18.034;2022-07-26T07:19:43;5.97;;;5.32;;
10823;SDS011;39116;59.332;18.034;2022-07-26T07:22:11;7.00;;;4.85;;
10823;SDS011;39116;59.332;18.034;2022-07-26T07:24:38;7.38;;;6.13;;
10823;SDS011;39116;59.332;18.034;2022-07-26T07:27:04;6.28;;;5.63;;
10823;SDS011;39116;59.332;18.034;2022-07-26T07:29:31;5.15;;;4.28;;
10823;SDS011;39116;59.332;18.034;2022-07-26T07:31:57;5.82;;;4.70;;
10823;SDS011;39116;59.332;18.034;2022-07-26T07:34:23;5.10;;;4.60;;
10823;SDS011;39116;59.332;18.034;2022-07-26T07:36:50;5.03;;;4.53;;
10823;SDS011;39116;59.332;18.034;2022-07-26T07:39:19;3.83;;;3.53;;
10823;SDS011;39116;59.332;18.034;2022-07-26T07:41:45;4.80;;;3.67;;
10823;SDS011;39116;59.332;18.034;2022-07-26T07:44:12;4.32;;;3.38;;
10823;SDS011;39116;59.332;18.034;2022-07-26T07:46:38;4.15;;;3.33;;
10823;SDS011;39116;59.332;18.034;2022-07-26T07:49:05;4.20;;;3.47;;
10823;SDS011;39116;59.332;18.034;2022-07-26T07:51:31;3.72;;;3.25;;
10823;SDS011;39116;59.332;18.034;2022-07-26T07:53:58;4.40;;;3.97;;
10823;SDS011;39116;59.332;18.034;2022-07-26T07:56:26;4.32;;;2.95;;
10823;SDS011;39116;59.332;18.034;2022-07-26T07:58:52;4.03;;;3.30;;
10823;SDS011;39116;59.332;18.034;2022-07-26T08:01:19;3.92;;;3.40;;
10823;SDS011;39116;59.332;18.034;2022-07-26T08:03:45;3.30;;;2.95;;
10823;SDS011;39116;59.332;18.034;2022-07-26T08:06:12;3.63;;;3.13;;
10823;SDS011;39116;59.332;18.034;2022-07-26T08:08:38;4.35;;;3.58;;
10823;SDS011;39116;59.332;18.034;2022-07-26T08:11:05;3.63;;;3.33;;
10823;SDS011;39116;59.332;18.034;2022-07-26T08:13:33;6.07;;;3.03;;
10823;SDS011;39116;59.332;18.034;2022-07-26T08:15:59;3.67;;;3.00;;
10823;SDS011;39116;59.332;18.034;2022-07-26T08:18:26;5.70;;;3.30;;
10823;SDS011;39116;59.332;18.034;2022-07-26T08:20:52;3.63;;;2.97;;
10823;SDS011;39116;59.332;18.034;2022-07-26T08:23:19;4.78;;;3.28;;
10823;SDS011;39116;59.332;18.034;2022-07-26T08:25:45;3.90;;;3.15;;
10823;SDS011;39116;59.332;18.034;2022-07-26T08:28:12;4.30;;;2.85;;
10823;SDS011;39116;59.332;18.034;2022-07-26T08:30:42;5.07;;;2.97;;
10823;SDS011;39116;59.332;18.034;2022-07-26T08:33:08;5.30;;;3.38;;
10823;SDS011;39116;59.332;18.034;2022-07-26T08:35:34;4.45;;;3.10;;
10823;SDS011;39116;59.332;18.034;2022-07-26T08:38:01;4.68;;;3.38;;
10823;SDS011;39116;59.332;18.034;2022-07-26T08:40:27;4.97;;;2.90;;
10823;SDS011;39116;59.332;18.034;2022-07-26T08:42:54;4.82;;;3.17;;
10823;SDS011;39116;59.332;18.034;2022-07-26T08:45:21;5.22;;;3.38;;
10823;SDS011;39116;59.332;18.034;2022-07-26T08:47:49;5.32;;;3.45;;
10823;SDS011;39116;59.332;18.034;2022-07-26T08:50:15;5.75;;;3.22;;
10823;SDS011;39116;59.332;18.034;2022-07-26T08:52:42;4.70;;;3.30;;
10823;SDS011;39116;59.332;18.034;2022-07-26T08:55:09;4.93;;;2.72;;
10823;SDS011;39116;59.332;18.034;2022-07-26T08:57:35;4.30;;;2.95;;
10823;SDS011;39116;59.332;18.034;2022-07-26T09:00:15;7.03;;;3.08;;
10823;SDS011;39116;59.332;18.034;2022-07-26T09:02:42;7.30;;;3.20;;
10823;SDS011;39116;59.332;18.034;2022-07-26T09:05:10;7.75;;;3.05;;
10823;SDS011;39116;59.332;18.034;2022-07-26T09:07:37;5.88;;;2.70;;
10823;SDS011;39116;59.332;18.034;2022-07-26T09:10:04;4.40;;;2.83;;
10823;SDS011;39116;59.332;18.034;2022-07-26T09:12:31;4.70;;;2.85;;
10823;SDS011;39116;59.332;18.034;2022-07-26T09:14:58;5.60;;;2.88;;
10823;SDS011;39116;59.332;18.034;2022-07-26T09:17:38;3.97;;;2.70;;
10823;SDS011;39116;59.332;18.034;2022-07-26T09:20:05;5.00;;;2.88;;
10823;SDS011;39116;59.332;18.034;2022-07-26T09:22:35;6.93;;;3.30;;
10823;SDS011;39116;59.332;18.034;2022-07-26T09:25:02;4.15;;;2.70;;
10823;SDS011;39116;59.332;18.034;2022-07-26T09:27:33;5.40;;;2.58;;
10823;SDS011;39116;59.332;18.034;2022-07-26T09:30:03;3.95;;;2.70;;
10823;SDS011;39116;59.332;18.034;2022-07-26T09:32:30;3.95;;;2.50;;
10823;SDS011;39116;59.332;18.034;2022-07-26T09:35:08;3.72;;;2.35;;
10823;SDS011;39116;59.332;18.034;2022-07-26T09:37:37;2.88;;;2.15;;
10823;SDS011;39116;59.332;18.034;2022-07-26T09:40:05;2.88;;;2.22;;
10823;SDS011;39116;59.332;18.034;2022-07-26T09:42:31;5.78;;;2.50;;
10823;SDS011;39116;59.332;18.034;2022-07-26T09:44:58;4.18;;;2.67;;
10823;SDS011;39116;59.332;18.034;2022-07-26T09:47:34;4.18;;;2.65;;
10823;SDS011;39116;59.332;18.034;2022-07-26T09:50:07;4.63;;;2.92;;
10823;SDS011;39116;59.332;18.034;2022-07-26T09:52:36;4.28;;;2.55;;
10823;SDS011;39116;59.332;18.034;2022-07-26T09:55:03;4.30;;;2.60;;
10823;SDS011;39116;59.332;18.034;2022-07-26T09:57:30;3.53;;;2.70;;
10823;SDS011;39116;59.332;18.034;2022-07-26T09:59:59;6.35;;;2.70;;
10823;SDS011;39116;59.332;18.034;2022-07-26T10:02:26;6.63;;;3.10;;
10823;SDS011;39116;59.332;18.034;2022-07-26T10:04:53;5.65;;;2.70;;
10823;SDS011;39116;59.332;18.034;2022-07-26T10:07:19;4.03;;;2.80;;
10823;SDS011;39116;59.332;18.034;2022-07-26T10:09:47;3.50;;;2.88;;
10823;SDS011;39116;59.332;18.034;2022-07-26T10:12:15;4.43;;;3.03;;
10823;SDS011;39116;59.332;18.034;2022-07-26T10:14:43;3.83;;;2.80;;
10823;SDS011;39116;59.332;18.034;2022-07-26T10:20:05;3.42;;;2.95;;
10823;SDS011;39116;59.332;18.034;2022-07-26T10:22:32;7.32;;;2.92;;
10823;SDS011;39116;59.332;18.034;2022-07-26T10:27:57;4.35;;;2.22;;
10823;SDS011;39116;59.332;18.034;2022-07-26T10:30:24;3.40;;;2.30;;
10823;SDS011;39116;59.332;18.034;2022-07-26T10:32:58;4.13;;;2.55;;
10823;SDS011;39116;59.332;18.034;2022-07-26T10:35:28;2.78;;;2.10;;
10823;SDS011;39116;59.332;18.034;2022-07-26T10:37:56;3.83;;;2.30;;
10823;SDS011;39116;59.332;18.034;2022-07-26T10:40:24;3.95;;;2.20;;
10823;SDS011;39116;59.332;18.034;2022-07-26T10:43:05;3.28;;;2.25;;
10823;SDS011;39116;59.332;18.034;2022-07-26T10:45:31;3.90;;;2.47;;
10823;SDS011;39116;59.332;18.034;2022-07-26T10:48:08;4.40;;;2.30;;
10823;SDS011;39116;59.332;18.034;2022-07-26T10:50:35;5.47;;;2.35;;
10823;SDS011;39116;59.332;18.034;2022-07-26T10:53:01;4.47;;;2.67;;
10823;SDS011;39116;59.332;18.034;2022-07-26T10:55:29;3.92;;;2.60;;
10823;SDS011;39116;59.332;18.034;2022-07-26T10:57:56;4.53;;;2.40;;
10823;SDS011;39116;59.332;18.034;2022-07-26T11:00:23;4.75;;;2.42;;
10823;SDS011;39116;59.332;18.034;2022-07-26T11:02:52;6.47;;;2.90;;
10823;SDS011;39116;59.332;18.034;2022-07-26T11:05:20;3.85;;;2.28;;
10823;SDS011;39116;59.332;18.034;2022-07-26T11:10:26;4.18;;;2.35;;
10823;SDS011;39116;59.332;18.034;2022-07-26T11:13:01;3.63;;;2.50;;
10823;SDS011;39116;59.332;18.034;2022-07-26T11:15:27;3.25;;;2.40;;
10823;SDS011;39116;59.332;18.034;2022-07-26T11:18:04;4.88;;;2.42;;
10823;SDS011;39116;59.332;18.034;2022-07-26T11:20:30;4.13;;;2.75;;
10823;SDS011;39116;59.332;18.034;2022-07-26T11:22:57;4.13;;;2.85;;
10823;SDS011;39116;59.332;18.034;2022-07-26T11:25:23;5.45;;;2.70;;
10823;SDS011;39116;59.332;18.034;2022-07-26T11:28:00;6.00;;;2.88;;
10823;SDS011;39116;59.332;18.034;2022-07-26T11:30:27;5.07;;;2.80;;
10823;SDS011;39116;59.332;18.034;2022-07-26T11:32:53;5.60;;;3.08;;
10823;SDS011;39116;59.332;18.034;2022-07-26T11:35:22;6.03;;;2.97;;
10823;SDS011;39116;59.332;18.034;2022-07-26T11:37:53;3.60;;;2.63;;
10823;SDS011;39116;59.332;18.034;2022-07-26T11:43:02;4.53;;;2.63;;
10823;SDS011;39116;59.332;18.034;2022-07-26T11:45:28;4.53;;;2.75;;
10823;SDS011;39116;59.332;18.034;2022-07-26T11:47:56;4.38;;;2.40;;
10823;SDS011;39116;59.332;18.034;2022-07-26T11:50:22;3.35;;;2.50;;
10823;SDS011;39116;59.332;18.034;2022-07-26T11:52:49;5.75;;;2.40;;
10823;SDS011;39116;59.332;18.034;2022-07-26T11:55:23;3.72;;;2.40;;
10823;SDS011;39116;59.332;18.034;2022-07-26T11:57:50;3.28;;;2.38;;
10823;SDS011;39116;59.332;18.034;2022-07-26T12:00:18;4.10;;;2.55;;
10823;SDS011;39116;59.332;18.034;2022-07-26T12:02:44;4.05;;;2.53;;
10823;SDS011;39116;59.332;18.034;2022-07-26T12:05:11;4.25;;;2.42;;
10823;SDS011;39116;59.332;18.034;2022-07-26T12:07:38;4.85;;;2.50;;
10823;SDS011;39116;59.332;18.034;2022-07-26T12:10:17;5.25;;;2.45;;
10823;SDS011;39116;59.332;18.034;2022-07-26T12:12:43;4.80;;;2.20;;
10823;SDS011;39116;59.332;18.034;2022-07-26T12:15:10;4.00;;;2.50;;
10823;SDS011;39116;59.332;18.034;2022-07-26T12:17:38;3.05;;;2.42;;
10823;SDS011;39116;59.332;18.034;2022-07-26T12:20:22;3.35;;;2.42;;
10823;SDS011;39116;59.332;18.034;2022-07-26T12:22:52;4.13;;;2.60;;
10823;SDS011;39116;59.332;18.034;2022-07-26T12:25:23;4.10;;;2.50;;
10823;SDS011;39116;59.332;18.034;2022-07-26T12:27:49;5.13;;;2.60;;
10823;SDS011;39116;59.332;18.034;2022-07-26T12:30:15;4.82;;;2.75;;
10823;SDS011;39116;59.332;18.034;2022-07-26T12:32:44;4.20;;;2.83;;
10823;SDS011;39116;59.332;18.034;2022-07-26T12:35:13;2.97;;;2.65;;
10823;SDS011;39116;59.332;18.034;2022-07-26T12:37:47;3.92;;;2.40;;
10823;SDS011;39116;59.332;18.034;2022-07-26T12:40:14;4.88;;;2.67;;
10823;SDS011;39116;59.332;18.034;2022-07-26T12:42:41;4.85;;;3.10;;
10823;SDS011;39116;59.332;18.034;2022-07-26T12:45:09;3.80;;;2.65;;
10823;SDS011;39116;59.332;18.034;2022-07-26T12:47:37;5.07;;;2.55;;
10823;SDS011;39116;59.332;18.034;2022-07-26T12:50:05;3.83;;;2.60;;
10823;SDS011;39116;59.332;18.034;2022-07-26T12:52:33;16.10;;;9.20;;
10823;SDS011;39116;59.332;18.034;2022-07-26T12:54:59;5.25;;;3.50;;
10823;SDS011;39116;59.332;18.034;2022-07-26T12:57:26;4.28;;;2.63;;
10823;SDS011;39116;59.332;18.034;2022-07-26T12:59:53;2.78;;;2.10;;
10823;SDS011;39116;59.332;18.034;2022-07-26T13:02:20;5.15;;;3.58;;
10823;SDS011;39116;59.332;18.034;2022-07-26T13:04:46;6.15;;;4.63;;
10823;SDS011;39116;59.332;18.034;2022-07-26T13:07:15;5.63;;;3.90;;
10823;SDS011;39116;59.332;18.034;2022-07-26T13:09:42;3.03;;;2.33;;
10823;SDS011;39116;59.332;18.034;2022-07-26T13:12:09;2.00;;;1.80;;
10823;SDS011;39116;59.332;18.034;2022-07-26T13:14:36;2.55;;;1.85;;
10823;SDS011;39116;59.332;18.034;2022-07-26T13:17:03;2.13;;;1.80;;
10823;SDS011;39116;59.332;18.034;2022-07-26T13:19:30;3.35;;;2.08;;
10823;SDS011;39116;59.332;18.034;2022-07-26T13:21:57;1.75;;;1.65;;
10823;SDS011;39116;59.332;18.034;2022-07-26T13:24:25;3.35;;;2.00;;
10823;SDS011;39116;59.332;18.034;2022-07-26T13:26:52;3.25;;;1.83;;
10823;SDS011;39116;59.332;18.034;2022-07-26T13:29:18;2.90;;;1.60;;
10823;SDS011;39116;59.332;18.034;2022-07-26T13:31:45;2.78;;;1.70;;
10823;SDS011;39116;59.332;18.034;2022-07-26T13:34:11;2.08;;;1.45;;
10823;SDS011;39116;59.332;18.034;2022-07-26T13:36:39;1.58;;;1.48;;
10823;SDS011;39116;59.332;18.034;2022-07-26T13:39:05;1.40;;;1.25;;
10823;SDS011;39116;59.332;18.034;2022-07-26T13:41:33;2.60;;;1.60;;
10823;SDS011;39116;59.332;18.034;2022-07-26T13:44:00;1.75;;;1.55;;
10823;SDS011;39116;59.332;18.034;2022-07-26T13:46:26;2.00;;;1.60;;
10823;SDS011;39116;59.332;18.034;2022-07-26T13:48:55;1.90;;;1.52;;
10823;SDS011;39116;59.332;18.034;2022-07-26T13:51:21;2.33;;;1.80;;
10823;SDS011;39116;59.332;18.034;2022-07-26T13:53:48;2.20;;;1.52;;
10823;SDS011;39116;59.332;18.034;2022-07-26T13:56:14;1.60;;;1.50;;
10823;SDS011;39116;59.332;18.034;2022-07-26T13:58:42;1.52;;;1.42;;
10823;SDS011;39116;59.332;18.034;2022-07-26T14:01:08;1.70;;;1.60;;
10823;SDS011;39116;59.332;18.034;2022-07-26T14:03:35;2.13;;;1.60;;
10823;SDS011;39116;59.332;18.034;2022-07-26T14:06:01;2.53;;;1.85;;
10823;SDS011;39116;59.332;18.034;2022-07-26T14:08:28;2.33;;;1.63;;
10823;SDS011;39116;59.332;18.034;2022-07-26T14:10:54;2.03;;;1.75;;
10823;SDS011;39116;59.332;18.034;2022-07-26T14:13:20;2.70;;;1.75;;
10823;SDS011;39116;59.332;18.034;2022-07-26T14:15:48;4.32;;;1.88;;
10823;SDS011;39116;59.332;18.034;2022-07-26T14:18:15;2.30;;;1.85;;
10823;SDS011;39116;59.332;18.034;2022-07-26T14:20:41;2.58;;;1.73;;
10823;SDS011;39116;59.332;18.034;2022-07-26T14:23:08;2.78;;;1.60;;
10823;SDS011;39116;59.332;18.034;2022-07-26T14:25:34;2.83;;;1.88;;
10823;SDS011;39116;59.332;18.034;2022-07-26T14:28:01;1.92;;;1.83;;
10823;SDS011;39116;59.332;18.034;2022-07-26T14:30:27;2.40;;;1.50;;
10823;SDS011;39116;59.332;18.034;2022-07-26T14:32:55;3.30;;;1.40;;
10823;SDS011;39116;59.332;18.034;2022-07-26T14:35:21;2.45;;;1.60;;
10823;SDS011;39116;59.332;18.034;2022-07-26T14:37:48;2.35;;;1.58;;
10823;SDS011;39116;59.332;18.034;2022-07-26T14:40:15;3.92;;;1.50;;
10823;SDS011;39116;59.332;18.034;2022-07-26T14:42:42;5.22;;;1.67;;